Terminal Aerodrome Forecast
Issued by NWS Cleveland, OH

Home | Current Version | Previous Version | Text Only | Print | Product List | Glossary On
Versions: 1 2 3 4 5 6 7 8 9 10 11 12 13 14 15 16 17 18 19 20 21 22 23 24 25 26 27
797
FTUS41 KCLE 180848 AAA
TAFCLE
TAF AMD
KCLE 180848Z 1809/1912 21009KT P6SM OVC035
     FM181200 21009KT P6SM OVC015
      TEMPO 1815/1819 5SM -SHRA BR OVC007
     FM182100 21010KT P6SM OVC015
     FM190400 22011KT 5SM BR BKN010=

USA.gov is the U.S. government's official web portal to all federal, state and local government web resources and services.